createdAt,value
2022-11-03T00:00:28.444Z,1.00
2022-11-03T00:03:51.308Z,1.00
2022-11-03T00:07:21.452Z,1.00
2022-11-03T00:10:44.342Z,1.00
2022-11-03T00:14:09.229Z,1.00
2022-11-03T00:17:32.086Z,1.00
2022-11-03T00:21:02.355Z,1.00
2022-11-03T00:24:26.655Z,1.00
2022-11-03T00:27:56.822Z,1.00
2022-11-03T00:31:21.655Z,1.00
2022-11-03T00:34:44.584Z,1.60
2022-11-03T00:38:07.477Z,12.10
2022-11-03T00:41:31.743Z,23.30
2022-11-03T00:44:54.628Z,20.20
2022-11-03T00:48:33.961Z,19.60
2022-11-03T00:51:56.848Z,25.10
2022-11-03T00:55:19.803Z,35.30
2022-11-03T00:58:44.827Z,56.70
2022-11-03T01:02:07.839Z,83.80
2022-11-03T01:05:48.539Z,75.40
2022-11-03T01:09:11.436Z,84.60
2022-11-03T01:12:34.379Z,86.90
2022-11-03T01:15:59.997Z,91.10
2022-11-03T01:19:23.675Z,99.90
2022-11-03T01:22:46.572Z,99.90
2022-11-03T01:26:11.645Z,99.90
2022-11-03T01:29:34.560Z,99.90
2022-11-03T01:32:58.818Z,99.90
2022-11-03T01:36:22.136Z,99.90
2022-11-03T01:39:45.024Z,99.90
2022-11-03T01:43:17.364Z,99.90
2022-11-03T01:46:43.576Z,99.90
2022-11-03T01:50:12.379Z,99.90
2022-11-03T01:53:38.306Z,99.90
2022-11-03T01:57:01.696Z,99.90
2022-11-03T02:00:24.589Z,99.90
2022-11-03T02:03:50.896Z,99.90
2022-11-03T02:07:21.560Z,99.90
2022-11-03T02:10:47.580Z,99.90
2022-11-03T02:14:13.437Z,99.90
2022-11-03T02:17:38.306Z,99.90
2022-11-03T02:21:07.745Z,99.90
2022-11-03T02:24:43.164Z,99.90
2022-11-03T02:28:07.807Z,99.90
2022-11-03T02:31:36.835Z,99.90
2022-11-03T02:35:04.572Z,99.90
2022-11-03T02:38:31.791Z,99.90
2022-11-03T02:41:57.334Z,99.90
2022-11-03T02:45:24.966Z,99.90
2022-11-03T02:48:49.099Z,99.90
2022-11-03T02:52:35.755Z,99.90
2022-11-03T02:56:04.118Z,99.90
2022-11-03T02:59:30.155Z,99.90
2022-11-03T03:03:00.625Z,99.90
2022-11-03T03:06:27.095Z,99.90
2022-11-03T03:09:58.925Z,99.90
2022-11-03T03:13:24.678Z,99.90
2022-11-03T03:16:54.796Z,99.90
2022-11-03T03:20:25.230Z,99.90
2022-11-03T03:23:53.167Z,99.90
2022-11-03T03:27:20.856Z,99.90
2022-11-03T03:30:45.993Z,99.90
2022-11-03T03:34:31.566Z,99.90
2022-11-03T03:38:00.054Z,99.90
2022-11-03T03:41:24.786Z,99.90
2022-11-03T03:44:48.255Z,99.90
2022-11-03T03:48:11.380Z,99.90
2022-11-03T03:51:35.498Z,99.90
2022-11-03T03:54:59.922Z,99.90
2022-11-03T03:58:22.806Z,99.90
2022-11-03T04:01:45.794Z,99.90
2022-11-03T04:05:08.972Z,99.90
2022-11-03T04:08:31.851Z,99.90
2022-11-03T04:12:13.477Z,99.90
2022-11-03T04:15:56.587Z,99.90
2022-11-03T04:19:36.878Z,99.90
2022-11-03T04:22:59.778Z,99.90
2022-11-03T04:26:23.882Z,99.90
2022-11-03T04:29:48.176Z,99.90
2022-11-03T04:33:14.727Z,99.90
2022-11-03T04:36:37.611Z,99.90
2022-11-03T04:40:02.027Z,99.90
2022-11-03T04:43:32.480Z,99.90
2022-11-03T04:46:56.742Z,99.90
2022-11-03T04:50:21.651Z,99.90
2022-11-03T04:53:50.121Z,99.90
2022-11-03T04:57:15.513Z,99.90
2022-11-03T05:00:38.428Z,99.90
2022-11-03T05:04:02.706Z,99.90
2022-11-03T05:07:30.988Z,99.90
2022-11-03T05:10:53.876Z,99.90
2022-11-03T05:14:20.877Z,99.90
2022-11-03T05:17:43.925Z,99.90
2022-11-03T05:21:10.408Z,99.90
2022-11-03T05:24:36.433Z,99.90
2022-11-03T05:27:59.383Z,99.90
2022-11-03T05:31:24.940Z,99.90
2022-11-03T05:34:48.839Z,99.90
2022-11-03T05:38:17.663Z,99.90
2022-11-03T05:41:40.608Z,99.90
2022-11-03T05:45:08.895Z,99.90
2022-11-03T05:48:35.192Z,99.90
2022-11-03T05:51:58.224Z,99.90
2022-11-03T05:55:34.191Z,99.90
2022-11-03T05:58:57.604Z,99.90
2022-11-03T06:02:34.892Z,1.00
2022-11-03T06:05:59.512Z,1.00
2022-11-03T06:09:24.558Z,1.00
2022-11-03T06:12:49.114Z,1.00
2022-11-03T06:16:33.247Z,1.00
2022-11-03T06:19:58.882Z,1.00
2022-11-03T06:23:22.646Z,1.00
2022-11-03T06:26:47.536Z,1.00
2022-11-03T06:30:22.610Z,1.00
2022-11-03T06:33:45.552Z,1.00
2022-11-03T06:37:18.700Z,1.00
2022-11-03T06:40:41.601Z,1.00
2022-11-03T06:44:21.012Z,1.00
2022-11-03T06:47:45.238Z,1.00
2022-11-03T06:51:17.279Z,1.00
2022-11-03T06:54:40.369Z,1.00
2022-11-03T06:58:08.876Z,1.00
2022-11-03T07:01:34.774Z,1.00
2022-11-03T07:04:59.129Z,1.00
2022-11-03T07:08:24.510Z,99.90
2022-11-03T07:11:51.731Z,99.90
2022-11-03T07:15:24.601Z,99.90
2022-11-03T07:18:48.596Z,99.90
2022-11-03T07:22:20.839Z,99.90
2022-11-03T07:25:43.811Z,99.90
2022-11-03T07:29:08.730Z,99.90
2022-11-03T07:32:34.276Z,99.90
2022-11-03T07:36:15.890Z,99.90
2022-11-03T07:39:40.563Z,99.90
2022-11-03T07:43:14.979Z,99.90
2022-11-03T07:46:38.076Z,99.90
2022-11-03T07:50:01.018Z,91.40
2022-11-03T07:53:31.304Z,1.00
2022-11-03T07:56:57.976Z,1.00
2022-11-03T08:00:22.684Z,1.00
2022-11-03T08:03:48.584Z,1.00
2022-11-03T08:07:11.524Z,99.90
2022-11-03T08:10:34.415Z,99.90
2022-11-03T08:13:58.757Z,99.90
2022-11-03T08:17:21.685Z,99.90
2022-11-03T08:20:44.599Z,99.90
2022-11-03T08:24:07.809Z,99.90
2022-11-03T08:27:30.748Z,99.90
2022-11-03T08:30:55.016Z,99.90
2022-11-03T08:34:17.889Z,99.90
2022-11-03T08:37:40.762Z,99.90
2022-11-03T08:41:04.951Z,99.90
2022-11-03T08:44:27.864Z,99.90
2022-11-03T08:47:52.120Z,99.90
2022-11-03T08:51:16.014Z,99.90
2022-11-03T08:54:38.909Z,99.90
2022-11-03T08:58:01.800Z,99.90
2022-11-03T09:01:24.755Z,99.90
2022-11-03T09:04:49.184Z,99.90
2022-11-03T09:11:55.061Z,99.90
2022-11-03T09:15:18.180Z,99.90
2022-11-03T09:18:41.532Z,99.90
2022-11-03T09:22:05.755Z,99.90
2022-11-03T09:25:28.696Z,99.90
2022-11-03T09:28:51.591Z,99.90
2022-11-03T09:32:17.642Z,99.90
2022-11-03T09:35:44.839Z,99.90
2022-11-03T09:39:09.301Z,99.90
2022-11-03T09:42:34.296Z,99.90
2022-11-03T09:45:57.389Z,99.90
2022-11-03T09:49:22.408Z,99.90
2022-11-03T09:52:51.133Z,99.90
2022-11-03T09:56:18.903Z,99.90
2022-11-03T09:59:44.620Z,99.90
2022-11-03T10:03:07.948Z,99.90
2022-11-03T10:06:31.316Z,99.90
2022-11-03T10:09:55.942Z,99.90
2022-11-03T10:13:25.168Z,99.90
2022-11-03T10:16:54.054Z,99.90
2022-11-03T10:20:19.908Z,99.90
2022-11-03T10:23:42.800Z,99.90
2022-11-03T10:27:20.641Z,99.90
2022-11-03T10:34:37.365Z,99.90
2022-11-03T10:38:22.963Z,99.90
2022-11-03T10:41:57.333Z,99.90
2022-11-03T10:45:21.781Z,99.90
2022-11-03T10:48:46.438Z,99.90
2022-11-03T10:52:19.848Z,99.90
2022-11-03T10:55:42.820Z,99.90
2022-11-03T10:59:05.993Z,99.90
2022-11-03T11:02:32.384Z,99.90
2022-11-03T11:05:56.653Z,99.90
2022-11-03T11:09:25.497Z,99.90
2022-11-03T11:13:24.628Z,99.90
2022-11-03T11:16:52.605Z,99.90
2022-11-03T11:20:40.127Z,99.90
2022-11-03T11:24:04.719Z,99.90
2022-11-03T11:28:07.306Z,99.90
2022-11-03T11:31:31.820Z,99.90
2022-11-03T11:34:54.741Z,99.90
2022-11-03T11:39:05.705Z,99.90
2022-11-03T11:42:32.467Z,99.90
2022-11-03T11:46:40.733Z,99.90
2022-11-03T11:50:27.714Z,99.90
2022-11-03T11:54:16.161Z,99.90
2022-11-03T11:57:36.580Z,99.90
2022-11-03T12:01:01.633Z,99.90
2022-11-03T12:04:29.028Z,99.90
2022-11-03T12:07:52.244Z,99.90
2022-11-03T12:11:15.177Z,99.90
2022-11-03T12:14:40.290Z,99.90
2022-11-03T12:18:38.092Z,99.90
2022-11-03T12:22:02.855Z,99.90
2022-11-03T12:25:39.996Z,99.90
2022-11-03T12:29:02.919Z,99.90
2022-11-03T12:32:35.551Z,99.90
2022-11-03T12:35:58.753Z,99.90
2022-11-03T12:39:21.659Z,99.90
2022-11-03T12:42:44.553Z,99.90
2022-11-03T12:46:07.650Z,99.90
2022-11-03T12:49:32.034Z,99.90
2022-11-03T12:52:54.944Z,99.90
2022-11-03T12:56:19.712Z,99.90
2022-11-03T12:59:42.617Z,99.90
2022-11-03T13:03:05.846Z,99.90
2022-11-03T13:06:30.200Z,99.90
2022-11-03T13:09:53.219Z,99.90
2022-11-03T13:13:16.097Z,99.90
2022-11-03T13:16:39.009Z,99.90
2022-11-03T13:20:01.988Z,99.90
2022-11-03T13:23:26.284Z,99.90
2022-11-03T13:26:49.332Z,99.90
2022-11-03T13:30:13.446Z,99.90
2022-11-03T13:33:36.343Z,99.90
2022-11-03T13:36:59.692Z,99.90
2022-11-03T13:44:08.588Z,99.90
2022-11-03T13:47:41.982Z,99.90
2022-11-03T13:51:17.544Z,99.90
2022-11-03T14:05:50.913Z,99.90
2022-11-03T14:09:13.863Z,99.90
2022-11-03T14:12:36.841Z,99.90
2022-11-03T14:16:01.199Z,99.90
2022-11-03T14:19:31.785Z,99.90
2022-11-03T14:22:59.813Z,99.90
2022-11-03T14:26:41.014Z,99.90
2022-11-03T14:30:06.298Z,99.90
2022-11-03T14:33:30.917Z,99.90
2022-11-03T14:36:54.083Z,99.90
2022-11-03T14:40:31.208Z,99.90
2022-11-03T14:43:54.302Z,99.90
2022-11-03T14:47:19.243Z,99.90
2022-11-03T14:50:43.503Z,99.90
2022-11-03T14:54:06.437Z,99.90
2022-11-03T14:57:29.336Z,99.90
2022-11-03T15:00:52.309Z,99.90
2022-11-03T15:04:15.533Z,1.00
2022-11-03T15:07:39.812Z,1.00
2022-11-03T15:11:05.012Z,1.00
2022-11-03T15:14:28.054Z,1.00
2022-11-03T15:17:53.345Z,1.00
2022-11-03T15:21:16.346Z,1.00
2022-11-03T15:28:23.628Z,1.00
2022-11-03T15:31:48.386Z,1.00
2022-11-03T15:35:11.860Z,1.00
2022-11-03T15:38:35.038Z,1.00
2022-11-03T15:42:00.177Z,1.00
2022-11-03T15:45:23.219Z,1.00
2022-11-03T15:48:46.720Z,1.00
2022-11-03T15:52:10.260Z,1.00
2022-11-03T15:55:33.243Z,1.00
2022-11-03T15:58:57.490Z,1.00
2022-11-03T16:02:40.123Z,1.00
2022-11-03T16:06:03.454Z,1.00
2022-11-03T16:09:26.586Z,1.00
2022-11-03T16:12:49.494Z,1.00
2022-11-03T16:16:13.729Z,1.00
2022-11-03T16:19:36.756Z,1.00
2022-11-03T16:22:59.690Z,1.00
2022-11-03T16:26:24.164Z,1.00
2022-11-03T16:29:47.126Z,1.00
2022-11-03T16:33:12.115Z,1.00
2022-11-03T16:36:35.015Z,1.00
2022-11-03T16:39:57.983Z,1.00
2022-11-03T16:43:26.076Z,1.00
2022-11-03T16:46:49.062Z,1.00
2022-11-03T16:50:13.370Z,1.00
2022-11-03T16:53:36.352Z,1.00
2022-11-03T16:56:59.532Z,1.00
2022-11-03T17:00:23.953Z,1.00
2022-11-03T17:03:46.953Z,1.00
2022-11-03T17:07:11.167Z,1.00
2022-11-03T17:10:34.108Z,1.00
2022-11-03T17:13:58.093Z,1.00
2022-11-03T17:17:20.993Z,1.00
2022-11-03T17:20:44.192Z,1.00
2022-11-03T17:24:10.960Z,1.00
2022-11-03T17:27:39.571Z,1.00
2022-11-03T17:31:02.768Z,1.00
2022-11-03T17:34:26.663Z,1.00
2022-11-03T17:37:50.320Z,1.00
2022-11-03T17:41:18.043Z,1.00
2022-11-03T17:44:43.301Z,1.00
2022-11-03T17:48:07.683Z,1.00
2022-11-03T17:51:32.341Z,1.00
2022-11-03T17:54:59.282Z,1.00
2022-11-03T17:58:28.825Z,1.00
2022-11-03T18:01:52.254Z,1.00
2022-11-03T18:05:22.709Z,1.00
2022-11-03T18:08:45.700Z,1.00
2022-11-03T18:12:27.932Z,1.00
2022-11-03T18:15:55.695Z,1.00
2022-11-03T18:19:19.137Z,1.00
2022-11-03T18:22:42.172Z,1.00
2022-11-03T18:26:15.890Z,1.00
2022-11-03T18:29:38.821Z,1.00
2022-11-03T18:33:03.153Z,1.00
2022-11-03T18:36:26.066Z,1.00
2022-11-03T18:39:48.959Z,1.00
2022-11-03T18:43:16.569Z,1.00
2022-11-03T18:46:39.465Z,1.00
2022-11-03T18:50:04.438Z,1.00
2022-11-03T18:53:27.564Z,1.00
2022-11-03T18:56:51.075Z,1.00
2022-11-03T19:00:20.255Z,1.00
2022-11-03T19:03:43.163Z,1.00
2022-11-03T19:07:08.544Z,1.00
2022-11-03T19:10:31.558Z,1.00
2022-11-03T19:13:54.875Z,1.00
2022-11-03T19:17:23.298Z,1.00
2022-11-03T19:20:46.616Z,1.00
2022-11-03T19:24:10.932Z,1.00
2022-11-03T19:27:36.778Z,1.00
2022-11-03T19:30:59.707Z,1.00
2022-11-03T19:34:27.210Z,1.00
2022-11-03T19:38:01.536Z,1.00
2022-11-03T19:41:43.124Z,1.00
2022-11-03T19:45:07.925Z,1.00
2022-11-03T19:48:34.282Z,1.00
2022-11-03T19:51:57.383Z,1.00
2022-11-03T19:55:21.285Z,1.00
2022-11-03T19:58:45.525Z,1.00
2022-11-03T20:02:08.633Z,1.00
2022-11-03T20:05:32.191Z,1.00
2022-11-03T20:08:55.258Z,1.00
2022-11-03T20:12:20.043Z,1.00
2022-11-03T20:15:44.359Z,1.00
2022-11-03T20:19:07.322Z,1.00
2022-11-03T20:22:31.193Z,1.00
2022-11-03T20:25:54.556Z,1.00
2022-11-03T20:29:17.753Z,1.00
2022-11-03T20:32:41.991Z,1.00
2022-11-03T20:36:06.072Z,1.00
2022-11-03T20:39:29.059Z,1.00
2022-11-03T20:42:55.312Z,1.00
2022-11-03T20:46:23.252Z,1.00
2022-11-03T20:49:47.615Z,1.00
2022-11-03T20:53:15.655Z,1.00
2022-11-03T20:56:38.568Z,1.00
2022-11-03T21:00:01.464Z,1.00
2022-11-03T21:03:37.883Z,1.00
2022-11-03T21:07:13.427Z,1.00
2022-11-03T21:10:36.407Z,1.00
2022-11-03T21:14:01.239Z,1.00
2022-11-03T21:17:41.551Z,1.00
2022-11-03T21:21:08.275Z,1.00
2022-11-03T21:24:36.238Z,1.00
2022-11-03T21:27:59.302Z,1.00
2022-11-03T21:31:22.244Z,1.00
2022-11-03T21:34:45.628Z,1.00
2022-11-03T21:38:08.897Z,1.00
2022-11-03T21:41:51.133Z,1.00
2022-11-03T21:45:14.665Z,1.00
2022-11-03T21:48:55.657Z,1.00
2022-11-03T21:52:31.444Z,1.00
2022-11-03T21:55:54.401Z,1.00
2022-11-03T21:59:18.739Z,1.00
2022-11-03T22:02:41.645Z,1.00
2022-11-03T22:06:07.199Z,1.00
2022-11-03T22:09:30.092Z,1.00
2022-11-03T22:12:52.959Z,1.00
2022-11-03T22:16:34.980Z,1.00
2022-11-03T22:20:15.578Z,1.00
2022-11-03T22:23:55.862Z,1.00
2022-11-03T22:27:18.922Z,1.00
2022-11-03T22:30:59.224Z,1.00
2022-11-03T22:34:40.783Z,1.00
2022-11-03T22:38:05.923Z,1.00
2022-11-03T22:41:51.953Z,1.00
2022-11-03T22:45:32.554Z,1.00
2022-11-03T22:48:55.468Z,1.00
2022-11-03T22:52:19.724Z,1.00
2022-11-03T22:55:41.669Z,1.00
2022-11-03T22:59:04.842Z,1.00
2022-11-03T23:02:27.847Z,1.00
2022-11-03T23:05:50.781Z,1.00
2022-11-03T23:09:15.034Z,1.00
2022-11-03T23:12:37.919Z,1.00
2022-11-03T23:16:00.845Z,1.00
2022-11-03T23:19:41.182Z,1.00
2022-11-03T23:23:04.100Z,1.00
2022-11-03T23:26:27.518Z,1.00
2022-11-03T23:29:50.614Z,1.00
2022-11-03T23:33:13.810Z,1.00
2022-11-03T23:36:36.894Z,1.00
2022-11-03T23:39:59.805Z,1.00
2022-11-03T23:43:24.043Z,1.00
2022-11-03T23:47:04.497Z,1.00
2022-11-03T23:50:27.393Z,1.00
2022-11-03T23:53:50.980Z,1.00
2022-11-03T23:57:31.481Z,1.00
